Terminal Aerodrome Forecast
Issued by NWS

Home | Current Version | Previous Version | Text Only | Print | Product List | Glossary On
Versions: 1 2 3 4 5 6 7 8 9 10 11 12
000
FTUS45 KRIW 202328
TAFBPI
TAF
KBPI 202328Z 2100/2124 16008KT P6SM VCSH SCT040 BKN070
     FM210200 19008KT 3SM -SN OVC022
     FM211500 24011G21KT P6SM VCSH OVC028
     FM211900 24016G26KT P6SM VCSH BKN035=

USA.gov is the U.S. government's official web portal to all federal, state and local government web resources and services.